sensor_id;sensor_type;location;lat;lon;timestamp;P1;durP1;ratioP1;P2;durP2;ratioP2
47367;SDS011;34646;47.964;7.982;2024-01-15T00:01:43;8.63;;;4.13;;
47367;SDS011;34646;47.964;7.982;2024-01-15T00:07:47;10.52;;;5.10;;
47367;SDS011;34646;47.964;7.982;2024-01-15T00:13:48;9.23;;;4.13;;
47367;SDS011;34646;47.964;7.982;2024-01-15T00:19:48;9.00;;;4.23;;
47367;SDS011;34646;47.964;7.982;2024-01-15T00:25:50;8.43;;;3.60;;
47367;SDS011;34646;47.964;7.982;2024-01-15T00:31:51;8.20;;;4.22;;
47367;SDS011;34646;47.964;7.982;2024-01-15T00:37:52;8.27;;;4.17;;
47367;SDS011;34646;47.964;7.982;2024-01-15T00:43:53;9.63;;;3.97;;
47367;SDS011;34646;47.964;7.982;2024-01-15T00:49:54;8.73;;;3.93;;
47367;SDS011;34646;47.964;7.982;2024-01-15T00:55:55;7.33;;;3.77;;
47367;SDS011;34646;47.964;7.982;2024-01-15T01:01:56;10.97;;;4.20;;
47367;SDS011;34646;47.964;7.982;2024-01-15T01:07:57;8.77;;;4.53;;
47367;SDS011;34646;47.964;7.982;2024-01-15T01:13:58;7.97;;;4.07;;
47367;SDS011;34646;47.964;7.982;2024-01-15T01:20:00;5.82;;;3.72;;
47367;SDS011;34646;47.964;7.982;2024-01-15T01:26:04;11.23;;;4.22;;
47367;SDS011;34646;47.964;7.982;2024-01-15T01:32:05;6.17;;;3.80;;
47367;SDS011;34646;47.964;7.982;2024-01-15T01:38:06;7.27;;;3.73;;
47367;SDS011;34646;47.964;7.982;2024-01-15T01:44:07;8.47;;;3.83;;
47367;SDS011;34646;47.964;7.982;2024-01-15T01:50:08;7.00;;;3.93;;
47367;SDS011;34646;47.964;7.982;2024-01-15T01:56:09;7.80;;;4.17;;
47367;SDS011;34646;47.964;7.982;2024-01-15T02:02:10;8.83;;;3.93;;
47367;SDS011;34646;47.964;7.982;2024-01-15T02:08:12;8.60;;;4.20;;
47367;SDS011;34646;47.964;7.982;2024-01-15T02:14:13;6.93;;;3.90;;
47367;SDS011;34646;47.964;7.982;2024-01-15T02:20:14;10.18;;;4.30;;
47367;SDS011;34646;47.964;7.982;2024-01-15T02:26:15;6.30;;;3.80;;
47367;SDS011;34646;47.964;7.982;2024-01-15T02:32:16;6.93;;;3.63;;
47367;SDS011;34646;47.964;7.982;2024-01-15T02:38:18;6.90;;;3.97;;
47367;SDS011;34646;47.964;7.982;2024-01-15T02:44:19;5.97;;;3.58;;
47367;SDS011;34646;47.964;7.982;2024-01-15T02:50:20;9.77;;;4.00;;
47367;SDS011;34646;47.964;7.982;2024-01-15T02:56:21;9.60;;;4.20;;
47367;SDS011;34646;47.964;7.982;2024-01-15T03:02:22;8.10;;;3.90;;
47367;SDS011;34646;47.964;7.982;2024-01-15T03:08:23;8.07;;;4.10;;
47367;SDS011;34646;47.964;7.982;2024-01-15T03:14:24;7.37;;;3.93;;
47367;SDS011;34646;47.964;7.982;2024-01-15T03:20:26;8.93;;;4.18;;
47367;SDS011;34646;47.964;7.982;2024-01-15T03:26:27;5.93;;;3.47;;
47367;SDS011;34646;47.964;7.982;2024-01-15T03:32:28;7.10;;;3.60;;
47367;SDS011;34646;47.964;7.982;2024-01-15T03:38:29;7.10;;;4.03;;
47367;SDS011;34646;47.964;7.982;2024-01-15T03:44:30;6.67;;;4.17;;
47367;SDS011;34646;47.964;7.982;2024-01-15T03:50:30;6.70;;;3.57;;
47367;SDS011;34646;47.964;7.982;2024-01-15T03:56:31;6.20;;;3.57;;
47367;SDS011;34646;47.964;7.982;2024-01-15T04:02:32;7.00;;;3.50;;
47367;SDS011;34646;47.964;7.982;2024-01-15T04:08:33;6.33;;;3.43;;
47367;SDS011;34646;47.964;7.982;2024-01-15T04:14:34;5.77;;;3.43;;
47367;SDS011;34646;47.964;7.982;2024-01-15T04:20:35;6.30;;;3.70;;
47367;SDS011;34646;47.964;7.982;2024-01-15T04:26:36;6.10;;;3.53;;
47367;SDS011;34646;47.964;7.982;2024-01-15T04:32:37;8.53;;;3.80;;
47367;SDS011;34646;47.964;7.982;2024-01-15T04:38:38;6.10;;;3.03;;
47367;SDS011;34646;47.964;7.982;2024-01-15T04:44:39;6.47;;;3.47;;
47367;SDS011;34646;47.964;7.982;2024-01-15T04:50:40;6.03;;;3.43;;
47367;SDS011;34646;47.964;7.982;2024-01-15T04:56:41;6.83;;;3.97;;
47367;SDS011;34646;47.964;7.982;2024-01-15T05:02:42;5.30;;;3.23;;
47367;SDS011;34646;47.964;7.982;2024-01-15T05:08:43;6.03;;;3.23;;
47367;SDS011;34646;47.964;7.982;2024-01-15T05:14:45;6.40;;;3.50;;
47367;SDS011;34646;47.964;7.982;2024-01-15T05:20:45;6.50;;;3.70;;
47367;SDS011;34646;47.964;7.982;2024-01-15T05:26:46;6.53;;;4.00;;
47367;SDS011;34646;47.964;7.982;2024-01-15T05:32:47;5.50;;;3.77;;
47367;SDS011;34646;47.964;7.982;2024-01-15T05:38:48;5.57;;;3.67;;
47367;SDS011;34646;47.964;7.982;2024-01-15T05:44:50;5.70;;;4.10;;
47367;SDS011;34646;47.964;7.982;2024-01-15T05:50:51;7.77;;;5.00;;
47367;SDS011;34646;47.964;7.982;2024-01-15T05:56:52;8.60;;;4.50;;
47367;SDS011;34646;47.964;7.982;2024-01-15T06:02:52;19.73;;;11.63;;
47367;SDS011;34646;47.964;7.982;2024-01-15T06:08:53;20.73;;;11.50;;
47367;SDS011;34646;47.964;7.982;2024-01-15T06:14:54;26.87;;;14.00;;
47367;SDS011;34646;47.964;7.982;2024-01-15T06:20:55;28.60;;;15.40;;
47367;SDS011;34646;47.964;7.982;2024-01-15T06:26:57;26.37;;;13.43;;
47367;SDS011;34646;47.964;7.982;2024-01-15T06:32:58;21.97;;;12.10;;
47367;SDS011;34646;47.964;7.982;2024-01-15T06:38:58;21.63;;;12.33;;
47367;SDS011;34646;47.964;7.982;2024-01-15T06:44:59;19.77;;;11.63;;
47367;SDS011;34646;47.964;7.982;2024-01-15T06:51:00;20.87;;;11.60;;
47367;SDS011;34646;47.964;7.982;2024-01-15T06:57:01;19.80;;;11.90;;
47367;SDS011;34646;47.964;7.982;2024-01-15T07:03:03;23.67;;;11.20;;
47367;SDS011;34646;47.964;7.982;2024-01-15T07:09:04;19.13;;;10.43;;
47367;SDS011;34646;47.964;7.982;2024-01-15T07:15:06;21.17;;;11.05;;
47367;SDS011;34646;47.964;7.982;2024-01-15T07:21:08;18.50;;;9.98;;
47367;SDS011;34646;47.964;7.982;2024-01-15T07:27:09;19.02;;;9.88;;
47367;SDS011;34646;47.964;7.982;2024-01-15T07:33:11;16.60;;;9.90;;
47367;SDS011;34646;47.964;7.982;2024-01-15T07:39:12;19.08;;;10.30;;
47367;SDS011;34646;47.964;7.982;2024-01-15T07:45:13;14.52;;;9.13;;
47367;SDS011;34646;47.964;7.982;2024-01-15T07:51:15;18.43;;;10.80;;
47367;SDS011;34646;47.964;7.982;2024-01-15T07:57:16;15.57;;;8.60;;
47367;SDS011;34646;47.964;7.982;2024-01-15T08:03:17;18.13;;;8.83;;
47367;SDS011;34646;47.964;7.982;2024-01-15T08:09:18;15.73;;;9.00;;
47367;SDS011;34646;47.964;7.982;2024-01-15T08:15:20;14.40;;;8.87;;
47367;SDS011;34646;47.964;7.982;2024-01-15T08:21:20;13.52;;;8.43;;
47367;SDS011;34646;47.964;7.982;2024-01-15T08:27:22;15.15;;;8.60;;
47367;SDS011;34646;47.964;7.982;2024-01-15T08:33:23;14.43;;;8.13;;
47367;SDS011;34646;47.964;7.982;2024-01-15T08:39:24;13.20;;;8.23;;
47367;SDS011;34646;47.964;7.982;2024-01-15T08:45:25;12.40;;;7.73;;
47367;SDS011;34646;47.964;7.982;2024-01-15T08:51:26;13.93;;;8.03;;
47367;SDS011;34646;47.964;7.982;2024-01-15T08:57:28;14.10;;;7.60;;
47367;SDS011;34646;47.964;7.982;2024-01-15T09:03:29;12.13;;;7.27;;
47367;SDS011;34646;47.964;7.982;2024-01-15T09:15:31;12.80;;;7.93;;
47367;SDS011;34646;47.964;7.982;2024-01-15T09:21:32;10.10;;;6.77;;
47367;SDS011;34646;47.964;7.982;2024-01-15T09:27:33;12.87;;;7.07;;
47367;SDS011;34646;47.964;7.982;2024-01-15T09:33:34;12.53;;;7.53;;
47367;SDS011;34646;47.964;7.982;2024-01-15T09:39:35;12.60;;;7.80;;
47367;SDS011;34646;47.964;7.982;2024-01-15T09:45:36;10.38;;;6.38;;
47367;SDS011;34646;47.964;7.982;2024-01-15T09:51:38;11.63;;;7.28;;
47367;SDS011;34646;47.964;7.982;2024-01-15T09:57:40;11.35;;;6.55;;
47367;SDS011;34646;47.964;7.982;2024-01-15T10:03:41;10.95;;;6.68;;
47367;SDS011;34646;47.964;7.982;2024-01-15T10:09:42;10.07;;;6.13;;
47367;SDS011;34646;47.964;7.982;2024-01-15T10:15:46;10.40;;;6.20;;
47367;SDS011;34646;47.964;7.982;2024-01-15T10:21:47;10.07;;;6.10;;
47367;SDS011;34646;47.964;7.982;2024-01-15T10:27:51;10.17;;;5.73;;
47367;SDS011;34646;47.964;7.982;2024-01-15T10:34:09;9.52;;;5.95;;
47367;SDS011;34646;47.964;7.982;2024-01-15T10:40:15;10.02;;;5.80;;
47367;SDS011;34646;47.964;7.982;2024-01-15T10:46:16;8.77;;;5.90;;
47367;SDS011;34646;47.964;7.982;2024-01-15T10:52:17;9.43;;;6.03;;
47367;SDS011;34646;47.964;7.982;2024-01-15T10:58:18;9.00;;;5.20;;
47367;SDS011;34646;47.964;7.982;2024-01-15T11:04:20;8.98;;;5.45;;
47367;SDS011;34646;47.964;7.982;2024-01-15T11:10:41;7.45;;;4.78;;
47367;SDS011;34646;47.964;7.982;2024-01-15T11:16:55;8.43;;;5.28;;
47367;SDS011;34646;47.964;7.982;2024-01-15T11:22:59;8.55;;;4.97;;
47367;SDS011;34646;47.964;7.982;2024-01-15T11:29:01;8.67;;;5.17;;
47367;SDS011;34646;47.964;7.982;2024-01-15T11:35:04;8.48;;;5.05;;
47367;SDS011;34646;47.964;7.982;2024-01-15T11:41:15;7.22;;;4.80;;
47367;SDS011;34646;47.964;7.982;2024-01-15T11:47:16;7.03;;;4.43;;
47367;SDS011;34646;47.964;7.982;2024-01-15T11:59:43;6.10;;;4.40;;
47367;SDS011;34646;47.964;7.982;2024-01-15T12:05:44;9.33;;;4.70;;
47367;SDS011;34646;47.964;7.982;2024-01-15T12:11:46;9.67;;;6.00;;
47367;SDS011;34646;47.964;7.982;2024-01-15T12:17:58;10.38;;;5.75;;
47367;SDS011;34646;47.964;7.982;2024-01-15T12:24:00;12.50;;;6.32;;
47367;SDS011;34646;47.964;7.982;2024-01-15T12:30:01;18.03;;;7.27;;
47367;SDS011;34646;47.964;7.982;2024-01-15T12:36:03;14.10;;;7.00;;
47367;SDS011;34646;47.964;7.982;2024-01-15T12:48:06;15.60;;;7.87;;
47367;SDS011;34646;47.964;7.982;2024-01-15T12:54:07;15.75;;;8.15;;
47367;SDS011;34646;47.964;7.982;2024-01-15T13:00:08;18.83;;;8.27;;
47367;SDS011;34646;47.964;7.982;2024-01-15T13:06:12;18.90;;;9.98;;
47367;SDS011;34646;47.964;7.982;2024-01-15T13:12:13;17.07;;;9.10;;
47367;SDS011;34646;47.964;7.982;2024-01-15T13:18:14;17.77;;;8.38;;
47367;SDS011;34646;47.964;7.982;2024-01-15T13:24:15;17.53;;;9.07;;
47367;SDS011;34646;47.964;7.982;2024-01-15T13:30:16;21.90;;;9.38;;
47367;SDS011;34646;47.964;7.982;2024-01-15T13:36:17;21.67;;;10.10;;
47367;SDS011;34646;47.964;7.982;2024-01-15T13:42:18;22.63;;;9.43;;
47367;SDS011;34646;47.964;7.982;2024-01-15T13:48:22;18.73;;;9.80;;
47367;SDS011;34646;47.964;7.982;2024-01-15T13:54:23;24.93;;;9.77;;
47367;SDS011;34646;47.964;7.982;2024-01-15T14:00:24;24.27;;;8.97;;
47367;SDS011;34646;47.964;7.982;2024-01-15T14:06:24;27.33;;;9.97;;
47367;SDS011;34646;47.964;7.982;2024-01-15T14:12:26;23.67;;;9.15;;
47367;SDS011;34646;47.964;7.982;2024-01-15T14:18:27;33.63;;;9.53;;
47367;SDS011;34646;47.964;7.982;2024-01-15T14:24:28;26.57;;;9.43;;
47367;SDS011;34646;47.964;7.982;2024-01-15T14:30:29;20.27;;;9.47;;
47367;SDS011;34646;47.964;7.982;2024-01-15T14:36:30;21.20;;;8.50;;
47367;SDS011;34646;47.964;7.982;2024-01-15T14:42:31;36.80;;;8.67;;
47367;SDS011;34646;47.964;7.982;2024-01-15T14:48:32;20.93;;;9.23;;
47367;SDS011;34646;47.964;7.982;2024-01-15T14:54:33;28.40;;;9.27;;
47367;SDS011;34646;47.964;7.982;2024-01-15T15:00:34;17.35;;;7.47;;
47367;SDS011;34646;47.964;7.982;2024-01-15T15:06:35;16.37;;;8.27;;
47367;SDS011;34646;47.964;7.982;2024-01-15T15:12:37;19.58;;;7.93;;
47367;SDS011;34646;47.964;7.982;2024-01-15T15:18:38;18.20;;;7.53;;
47367;SDS011;34646;47.964;7.982;2024-01-15T15:24:39;14.33;;;7.43;;
47367;SDS011;34646;47.964;7.982;2024-01-15T15:30:40;18.73;;;7.50;;
47367;SDS011;34646;47.964;7.982;2024-01-15T15:36:41;14.52;;;6.97;;
47367;SDS011;34646;47.964;7.982;2024-01-15T15:42:42;15.03;;;7.23;;
47367;SDS011;34646;47.964;7.982;2024-01-15T15:48:43;20.33;;;7.13;;
47367;SDS011;34646;47.964;7.982;2024-01-15T15:54:44;12.60;;;6.70;;
47367;SDS011;34646;47.964;7.982;2024-01-15T16:00:45;14.87;;;6.33;;
47367;SDS011;34646;47.964;7.982;2024-01-15T16:06:47;16.77;;;7.33;;
47367;SDS011;34646;47.964;7.982;2024-01-15T16:12:48;17.30;;;7.40;;
47367;SDS011;34646;47.964;7.982;2024-01-15T16:18:49;16.03;;;7.20;;
47367;SDS011;34646;47.964;7.982;2024-01-15T16:24:51;13.73;;;6.50;;
47367;SDS011;34646;47.964;7.982;2024-01-15T16:30:52;15.23;;;7.43;;
47367;SDS011;34646;47.964;7.982;2024-01-15T16:36:53;14.98;;;7.65;;
47367;SDS011;34646;47.964;7.982;2024-01-15T16:42:54;16.13;;;8.53;;
47367;SDS011;34646;47.964;7.982;2024-01-15T16:48:55;20.90;;;11.43;;
47367;SDS011;34646;47.964;7.982;2024-01-15T16:54:56;24.00;;;12.67;;
47367;SDS011;34646;47.964;7.982;2024-01-15T17:00:57;21.17;;;12.70;;
47367;SDS011;34646;47.964;7.982;2024-01-15T17:07:00;23.20;;;14.45;;
47367;SDS011;34646;47.964;7.982;2024-01-15T17:13:01;23.63;;;13.40;;
47367;SDS011;34646;47.964;7.982;2024-01-15T17:19:03;25.15;;;12.95;;
47367;SDS011;34646;47.964;7.982;2024-01-15T17:25:07;21.58;;;14.43;;
47367;SDS011;34646;47.964;7.982;2024-01-15T17:31:08;23.17;;;13.73;;
47367;SDS011;34646;47.964;7.982;2024-01-15T17:37:10;25.17;;;13.93;;
47367;SDS011;34646;47.964;7.982;2024-01-15T17:43:11;26.00;;;12.93;;
47367;SDS011;34646;47.964;7.982;2024-01-15T17:49:12;20.70;;;12.25;;
47367;SDS011;34646;47.964;7.982;2024-01-15T17:55:13;24.10;;;11.80;;
47367;SDS011;34646;47.964;7.982;2024-01-15T18:01:14;19.17;;;11.60;;
47367;SDS011;34646;47.964;7.982;2024-01-15T18:07:15;25.33;;;11.93;;
47367;SDS011;34646;47.964;7.982;2024-01-15T18:13:20;18.80;;;11.35;;
47367;SDS011;34646;47.964;7.982;2024-01-15T18:19:21;18.37;;;11.70;;
47367;SDS011;34646;47.964;7.982;2024-01-15T18:25:22;19.63;;;10.30;;
47367;SDS011;34646;47.964;7.982;2024-01-15T18:31:23;32.27;;;9.67;;
47367;SDS011;34646;47.964;7.982;2024-01-15T18:37:24;19.90;;;11.30;;
47367;SDS011;34646;47.964;7.982;2024-01-15T18:43:30;18.92;;;9.40;;
47367;SDS011;34646;47.964;7.982;2024-01-15T18:49:34;17.02;;;9.55;;
47367;SDS011;34646;47.964;7.982;2024-01-15T18:55:36;15.07;;;8.35;;
47367;SDS011;34646;47.964;7.982;2024-01-15T19:01:37;15.67;;;8.40;;
47367;SDS011;34646;47.964;7.982;2024-01-15T19:07:38;12.60;;;8.00;;
47367;SDS011;34646;47.964;7.982;2024-01-15T19:13:39;14.73;;;7.77;;
47367;SDS011;34646;47.964;7.982;2024-01-15T19:19:40;15.57;;;8.37;;
47367;SDS011;34646;47.964;7.982;2024-01-15T19:25:41;10.87;;;7.33;;
47367;SDS011;34646;47.964;7.982;2024-01-15T19:31:42;16.90;;;7.57;;
47367;SDS011;34646;47.964;7.982;2024-01-15T19:37:43;13.27;;;7.20;;
47367;SDS011;34646;47.964;7.982;2024-01-15T19:43:45;13.60;;;7.00;;
47367;SDS011;34646;47.964;7.982;2024-01-15T19:49:46;16.52;;;7.18;;
47367;SDS011;34646;47.964;7.982;2024-01-15T19:55:48;14.60;;;6.70;;
47367;SDS011;34646;47.964;7.982;2024-01-15T20:01:49;15.40;;;6.63;;
47367;SDS011;34646;47.964;7.982;2024-01-15T20:07:50;14.43;;;7.20;;
47367;SDS011;34646;47.964;7.982;2024-01-15T20:13:50;13.13;;;6.27;;
47367;SDS011;34646;47.964;7.982;2024-01-15T20:19:51;11.93;;;6.97;;
47367;SDS011;34646;47.964;7.982;2024-01-15T20:25:53;13.60;;;7.57;;
47367;SDS011;34646;47.964;7.982;2024-01-15T20:31:54;11.17;;;6.17;;
47367;SDS011;34646;47.964;7.982;2024-01-15T20:37:55;11.73;;;6.30;;
47367;SDS011;34646;47.964;7.982;2024-01-15T20:43:57;14.85;;;6.18;;
47367;SDS011;34646;47.964;7.982;2024-01-15T20:49:58;12.37;;;6.07;;
47367;SDS011;34646;47.964;7.982;2024-01-15T20:55:59;11.43;;;5.87;;
47367;SDS011;34646;47.964;7.982;2024-01-15T21:02:00;9.80;;;6.27;;
47367;SDS011;34646;47.964;7.982;2024-01-15T21:08:01;9.67;;;5.40;;
47367;SDS011;34646;47.964;7.982;2024-01-15T21:14:03;11.82;;;5.78;;
47367;SDS011;34646;47.964;7.982;2024-01-15T21:20:04;9.27;;;5.60;;
47367;SDS011;34646;47.964;7.982;2024-01-15T21:26:08;10.32;;;5.50;;
47367;SDS011;34646;47.964;7.982;2024-01-15T21:32:09;11.13;;;5.25;;
47367;SDS011;34646;47.964;7.982;2024-01-15T21:38:11;8.07;;;5.18;;
47367;SDS011;34646;47.964;7.982;2024-01-15T21:44:12;7.80;;;5.10;;
47367;SDS011;34646;47.964;7.982;2024-01-15T21:50:13;10.70;;;5.17;;
47367;SDS011;34646;47.964;7.982;2024-01-15T21:56:14;10.20;;;5.30;;
47367;SDS011;34646;47.964;7.982;2024-01-15T22:02:16;7.95;;;5.05;;
47367;SDS011;34646;47.964;7.982;2024-01-15T22:08:17;8.90;;;5.40;;
47367;SDS011;34646;47.964;7.982;2024-01-15T22:14:18;9.00;;;4.70;;
47367;SDS011;34646;47.964;7.982;2024-01-15T22:20:19;9.43;;;5.10;;
47367;SDS011;34646;47.964;7.982;2024-01-15T22:26:20;7.30;;;4.87;;
47367;SDS011;34646;47.964;7.982;2024-01-15T22:32:21;9.53;;;5.07;;
47367;SDS011;34646;47.964;7.982;2024-01-15T22:38:22;8.43;;;4.93;;
47367;SDS011;34646;47.964;7.982;2024-01-15T22:44:23;6.73;;;4.03;;
47367;SDS011;34646;47.964;7.982;2024-01-15T22:50:24;8.57;;;4.47;;
47367;SDS011;34646;47.964;7.982;2024-01-15T22:56:25;9.60;;;4.73;;
47367;SDS011;34646;47.964;7.982;2024-01-15T23:02:26;7.13;;;4.43;;
47367;SDS011;34646;47.964;7.982;2024-01-15T23:08:27;7.73;;;4.90;;
47367;SDS011;34646;47.964;7.982;2024-01-15T23:14:28;8.17;;;4.47;;
47367;SDS011;34646;47.964;7.982;2024-01-15T23:20:29;6.20;;;4.10;;
47367;SDS011;34646;47.964;7.982;2024-01-15T23:26:31;7.73;;;4.47;;
47367;SDS011;34646;47.964;7.982;2024-01-15T23:32:32;8.57;;;4.83;;
47367;SDS011;34646;47.964;7.982;2024-01-15T23:38:33;11.43;;;4.77;;
47367;SDS011;34646;47.964;7.982;2024-01-15T23:44:34;6.53;;;4.50;;
47367;SDS011;34646;47.964;7.982;2024-01-15T23:50:40;8.07;;;4.22;;
47367;SDS011;34646;47.964;7.982;2024-01-15T23:56:41;7.00;;;4.53;;
